Homer, Michigan
Current Conditions -  °F | °C
As of 1:33 PM on Saturday 25 Oct 2014 (Local Time) from KRMY Reporting Station
Scattered Clouds Scattered Clouds  
Wind Chill: 18°   Ceiling: Unl
Heat Index: 18°   Visibility: 10mi
Dew Point: 10°   Wind: 18mph
Humidity: 60%   Direction: 280°W
Pressure: 29.84"   Gusts: 25mph
Location:  42.15°N, 84.81°W
Report Text: KRMY 251733Z AUTO 28016G22KT 10SM SCT025 18/10 A2984 RMK AO2 T01820103
Loading
Personal Weather Stations






























Interactive Weather Map
Tropical Storm Tracking
New forecast layout! Learn more

10-Day Weather Forecast

Advertisements
Track Severe Weather on mobile